createdAt,value
2023-01-10T00:02:58.004Z,76.67
2023-01-10T00:08:05.252Z,76.12
2023-01-10T00:13:24.589Z,76.06
2023-01-10T00:18:28.225Z,74.70
2023-01-10T00:23:31.845Z,73.33
2023-01-10T00:28:35.137Z,72.21
2023-01-10T00:33:39.447Z,71.17
2023-01-10T00:38:51.037Z,71.39
2023-01-10T00:43:58.647Z,72.12
2023-01-10T00:49:02.299Z,71.83
2023-01-10T00:54:06.023Z,71.43
2023-01-10T00:59:09.758Z,69.77
2023-01-10T01:04:13.403Z,71.05
2023-01-10T01:09:16.588Z,70.32
2023-01-10T01:14:20.093Z,70.48
2023-01-10T01:19:23.154Z,69.82
2023-01-10T01:24:27.047Z,69.88
2023-01-10T01:29:42.355Z,70.34
2023-01-10T01:34:46.504Z,70.46
2023-01-10T01:39:49.643Z,70.75
2023-01-10T01:45:14.251Z,71.36
2023-01-10T01:50:23.090Z,71.43
2023-01-10T01:55:28.103Z,71.42
2023-01-10T02:00:35.665Z,71.50
2023-01-10T02:05:42.906Z,70.25
2023-01-10T02:10:53.917Z,69.06
2023-01-10T02:15:57.084Z,68.87
2023-01-10T02:21:36.676Z,68.59
2023-01-10T02:26:56.435Z,68.28
2023-01-10T02:32:40.694Z,68.86
2023-01-10T02:38:13.781Z,70.33
2023-01-10T02:43:21.955Z,71.94
2023-01-10T02:48:25.161Z,72.91
2023-01-10T02:53:49.984Z,73.65
2023-01-10T02:59:14.956Z,73.03
2023-01-10T03:04:46.175Z,74.14
2023-01-10T03:10:14.358Z,73.63
2023-01-10T03:15:21.288Z,74.59
2023-01-10T03:20:27.459Z,74.50
2023-01-10T03:25:35.964Z,75.11
2023-01-10T03:30:47.456Z,76.36
2023-01-10T03:36:11.597Z,76.71
2023-01-10T03:41:23.995Z,76.78
2023-01-10T03:46:36.442Z,78.00
2023-01-10T03:51:40.180Z,77.75
2023-01-10T03:56:50.112Z,77.52
2023-01-10T04:01:54.198Z,77.28
2023-01-10T04:06:57.749Z,77.00
2023-01-10T04:12:01.216Z,77.12
2023-01-10T04:17:04.374Z,77.28
2023-01-10T04:22:07.469Z,76.44
2023-01-10T04:27:10.807Z,76.61
2023-01-10T04:32:14.943Z,75.69
2023-01-10T04:37:18.191Z,76.78
2023-01-10T04:42:21.667Z,77.58
2023-01-10T04:47:24.706Z,77.68
2023-01-10T04:52:28.489Z,77.67
2023-01-10T04:57:31.521Z,76.42
2023-01-10T05:02:34.770Z,77.39
2023-01-10T05:07:38.443Z,77.55
2023-01-10T05:12:41.460Z,76.88
2023-01-10T05:17:44.394Z,75.46
2023-01-10T05:22:47.679Z,76.23
2023-01-10T05:27:51.977Z,76.54
2023-01-10T05:32:55.258Z,76.90
2023-01-10T05:37:58.292Z,76.93
2023-01-10T05:43:02.030Z,76.42
2023-01-10T05:48:05.101Z,76.33
2023-01-10T05:53:08.070Z,75.32
2023-01-10T05:58:11.902Z,75.55
2023-01-10T06:03:15.556Z,75.85
2023-01-10T06:08:18.703Z,74.55
2023-01-10T06:13:23.507Z,74.29
2023-01-10T06:18:27.311Z,76.43
2023-01-10T06:23:30.963Z,75.58
2023-01-10T06:28:34.106Z,76.38
2023-01-10T06:33:39.219Z,76.84
2023-01-10T06:38:43.155Z,77.83
2023-01-10T06:43:47.607Z,77.08
2023-01-10T06:48:51.218Z,77.52
2023-01-10T06:53:54.272Z,78.16
2023-01-10T06:58:57.404Z,80.53
2023-01-10T07:04:01.227Z,81.16
2023-01-10T07:09:06.540Z,82.94
2023-01-10T07:14:10.204Z,86.19
2023-01-10T07:19:17.828Z,87.15
2023-01-10T07:24:21.122Z,85.10
2023-01-10T07:29:25.143Z,84.73
2023-01-10T07:34:28.151Z,86.42
2023-01-10T07:39:31.407Z,87.77
2023-01-10T07:44:35.472Z,87.25
2023-01-10T07:49:39.306Z,89.37
2023-01-10T07:54:42.403Z,90.12
2023-01-10T07:59:46.530Z,90.63
2023-01-10T08:04:50.226Z,91.68
2023-01-10T08:09:53.446Z,91.43
2023-01-10T08:14:57.128Z,91.44
2023-01-10T08:20:00.398Z,91.28
2023-01-10T08:25:04.350Z,92.37
2023-01-10T08:30:09.362Z,90.88
2023-01-10T08:35:13.535Z,89.44
2023-01-10T08:40:17.620Z,87.66
2023-01-10T08:45:20.691Z,88.93
2023-01-10T08:50:27.297Z,85.30
2023-01-10T08:55:32.823Z,84.09
2023-01-10T09:00:36.688Z,87.63
2023-01-10T09:05:40.108Z,88.57
2023-01-10T09:10:43.222Z,89.36
2023-01-10T09:15:47.169Z,90.67
2023-01-10T09:20:51.834Z,91.26
2023-01-10T09:25:58.243Z,91.87
2023-01-10T09:31:04.581Z,91.23
2023-01-10T09:36:10.273Z,90.70
2023-01-10T09:41:42.986Z,91.32
2023-01-10T09:47:23.200Z,91.46
2023-01-10T09:52:33.995Z,88.88
2023-01-10T09:57:37.258Z,90.47
2023-01-10T10:02:45.814Z,91.03
2023-01-10T10:07:54.985Z,91.66
2023-01-10T10:13:26.979Z,94.73
2023-01-10T10:19:19.880Z,82.81
2023-01-10T10:24:40.993Z,85.09
2023-01-10T10:30:02.789Z,84.95
2023-01-10T10:35:17.342Z,77.65
2023-01-10T10:40:26.175Z,77.57
2023-01-10T10:45:40.929Z,79.77
2023-01-10T10:51:02.556Z,75.70
2023-01-10T10:56:13.782Z,75.53
2023-01-10T11:01:19.146Z,76.46
2023-01-10T11:06:25.927Z,73.22
2023-01-10T11:11:44.080Z,70.75
2023-01-10T11:16:47.893Z,66.14
2023-01-10T11:22:04.327Z,69.21
2023-01-10T11:27:19.610Z,66.67
2023-01-10T11:32:50.272Z,63.56
2023-01-10T11:38:22.268Z,60.03
2023-01-10T11:43:31.861Z,62.63
2023-01-10T11:49:06.774Z,62.46
2023-01-10T11:54:26.982Z,61.03
2023-01-10T11:59:30.816Z,57.41
2023-01-10T12:04:42.824Z,55.06
2023-01-10T12:09:59.082Z,51.44
2023-01-10T12:15:27.332Z,50.77
2023-01-10T12:20:33.230Z,46.59
2023-01-10T12:25:39.147Z,44.58
2023-01-10T12:30:44.802Z,44.20
2023-01-10T12:36:00.017Z,44.33
2023-01-10T12:41:06.209Z,40.96
2023-01-10T12:46:31.702Z,42.46
2023-01-10T12:51:45.009Z,48.29
2023-01-10T12:56:49.591Z,44.31
2023-01-10T13:02:02.489Z,42.25
2023-01-10T13:07:06.373Z,39.39
2023-01-10T13:12:12.274Z,34.20
2023-01-10T13:17:33.765Z,39.37
2023-01-10T13:22:38.161Z,33.01
2023-01-10T13:27:41.977Z,33.61
2023-01-10T13:33:00.464Z,34.44
2023-01-10T13:38:03.843Z,30.46
2023-01-10T13:43:45.712Z,31.47
2023-01-10T13:49:00.338Z,30.92
2023-01-10T13:54:28.021Z,33.38
2023-01-10T13:59:49.462Z,36.56
2023-01-10T14:04:56.249Z,44.03
2023-01-10T14:10:18.396Z,56.10
2023-01-10T14:15:38.394Z,59.63
2023-01-10T14:20:42.015Z,51.40
2023-01-10T14:25:46.759Z,47.24
2023-01-10T14:31:04.372Z,44.76
2023-01-10T14:36:15.514Z,43.87
2023-01-10T14:41:30.123Z,47.79
2023-01-10T14:46:45.391Z,49.28
2023-01-10T14:51:50.922Z,47.15
2023-01-10T14:56:54.838Z,49.45
2023-01-10T15:02:01.010Z,47.44
2023-01-10T15:07:17.001Z,45.39
2023-01-10T15:12:21.899Z,46.89
2023-01-10T15:17:25.805Z,40.05
2023-01-10T15:22:31.694Z,43.75
2023-01-10T15:27:37.138Z,43.40
2023-01-10T15:32:40.891Z,45.20
2023-01-10T15:37:52.836Z,42.46
2023-01-10T15:43:25.999Z,40.70
2023-01-10T15:48:29.536Z,43.72
2023-01-10T15:53:58.220Z,44.43
2023-01-10T15:59:03.514Z,46.82
2023-01-10T16:04:15.326Z,51.77
2023-01-10T16:09:22.859Z,50.62
2023-01-10T16:14:26.631Z,47.04
2023-01-10T16:19:30.215Z,51.37
2023-01-10T16:24:36.551Z,59.90
2023-01-10T16:29:40.849Z,61.98
2023-01-10T16:34:44.419Z,63.72
2023-01-10T16:39:47.916Z,68.12
2023-01-10T16:51:58.179Z,74.14
2023-01-10T16:57:01.187Z,72.91
2023-01-10T17:02:16.574Z,76.93
2023-01-10T17:07:23.053Z,74.08
2023-01-10T17:12:35.123Z,75.27
2023-01-10T17:17:38.260Z,80.26
2023-01-10T17:22:42.907Z,79.29
2023-01-10T17:27:46.135Z,82.76
2023-01-10T17:32:49.721Z,81.70
2023-01-10T17:37:52.775Z,74.51
2023-01-10T17:42:56.626Z,70.93
2023-01-10T17:47:59.674Z,70.56
2023-01-10T17:53:03.268Z,71.24
2023-01-10T17:58:06.601Z,67.29
2023-01-10T18:03:10.876Z,68.11
2023-01-10T18:08:14.410Z,62.29
2023-01-10T18:13:23.357Z,61.84
2023-01-10T18:18:28.362Z,64.04
2023-01-10T18:23:33.050Z,67.02
2023-01-10T18:28:42.594Z,68.34
2023-01-10T18:33:48.013Z,66.54
2023-01-10T18:38:52.208Z,67.20
2023-01-10T18:43:55.707Z,67.80
2023-01-10T18:48:58.853Z,68.42
2023-01-10T18:54:03.088Z,69.30
2023-01-10T18:59:06.665Z,68.54
2023-01-10T19:04:11.605Z,71.04
2023-01-10T19:09:15.237Z,69.80
2023-01-10T19:14:20.091Z,73.10
2023-01-10T19:19:24.113Z,74.73
2023-01-10T19:24:30.226Z,76.17
2023-01-10T19:29:35.440Z,77.09
2023-01-10T19:34:38.636Z,76.35
2023-01-10T19:39:42.474Z,74.75
2023-01-10T19:44:46.776Z,76.83
2023-01-10T19:49:51.418Z,74.62
2023-01-10T19:54:55.464Z,77.49
2023-01-10T19:59:58.833Z,78.73
2023-01-10T20:05:03.103Z,74.61
2023-01-10T20:10:06.559Z,75.22
2023-01-10T20:15:10.558Z,77.18
2023-01-10T20:20:14.720Z,77.50
2023-01-10T20:25:17.969Z,78.95
2023-01-10T20:30:21.879Z,80.16
2023-01-10T20:35:26.229Z,81.29
2023-01-10T20:40:30.219Z,82.28
2023-01-10T20:45:34.866Z,79.62
2023-01-10T20:50:42.715Z,77.06
2023-01-10T20:55:56.298Z,76.18
2023-01-10T21:01:04.450Z,79.07
2023-01-10T21:06:08.306Z,80.76
2023-01-10T21:11:14.147Z,80.95
2023-01-10T21:16:20.389Z,81.78
2023-01-10T21:21:23.546Z,82.65
2023-01-10T21:26:26.582Z,81.55
2023-01-10T21:31:29.905Z,82.42
2023-01-10T21:36:33.363Z,83.04
2023-01-10T21:41:55.906Z,83.02
2023-01-10T21:46:59.749Z,83.25
2023-01-10T21:52:03.481Z,82.96
2023-01-10T21:57:06.982Z,82.81
2023-01-10T22:02:15.438Z,83.24
2023-01-10T22:07:21.712Z,84.71
2023-01-10T22:12:26.226Z,85.45
2023-01-10T22:17:29.267Z,86.15
2023-01-10T22:22:33.524Z,87.19
2023-01-10T22:27:37.141Z,86.27
2023-01-10T22:32:40.456Z,87.10
2023-01-10T22:37:43.910Z,87.58
2023-01-10T22:42:52.450Z,87.43
2023-01-10T22:47:56.367Z,86.80
2023-01-10T22:52:59.899Z,87.37
2023-01-10T22:58:03.003Z,86.00
2023-01-10T23:03:06.985Z,86.08
2023-01-10T23:08:10.525Z,87.14
2023-01-10T23:13:15.788Z,86.36
2023-01-10T23:18:19.045Z,85.71
2023-01-10T23:23:23.149Z,85.20
2023-01-10T23:28:26.151Z,85.27
2023-01-10T23:33:30.931Z,85.33
2023-01-10T23:38:34.809Z,86.32
2023-01-10T23:43:38.359Z,86.90
2023-01-10T23:48:43.339Z,86.73
2023-01-10T23:53:46.821Z,87.09
2023-01-10T23:58:52.949Z,87.34
